Time;durP1;ratioP1;P1;durP2;ratioP2;P2;SDS_P1;SDS_P2;PMS_P1;PMS_P2;Temp;Humidity;BMP_temperature;BMP_pressure;BME280_temperature;BME280_humidity;BME280_pressure;Samples;Min_cycle;Max_cycle;Signal;HPM_P1;HPM_P2
2022/05/07 00:01:25;;;;;;;13.95;6.80;;;;;;;11.38;68.46;100729.63;5088541;28;20467;-29
2022/05/07 00:03:51;;;;;;;8.70;5.90;;;;;;;11.27;68.54;100711.53;5106533;28;20019;-29
2022/05/07 00:06:16;;;;;;;9.70;6.20;;;;;;;11.43;67.90;100737.00;5107235;28;20035;-29
2022/05/07 00:08:42;;;;;;;11.85;6.82;;;;;;;11.34;68.04;100716.84;5108797;28;20024;-30
2022/05/07 00:11:07;;;;;;;14.23;6.82;;;;;;;11.16;69.15;100730.88;5110798;28;20039;-30
2022/05/07 00:13:32;;;;;;;11.40;6.22;;;;;;;10.91;70.22;100735.97;5110509;28;20020;-28
2022/05/07 00:18:42;;;;;;;10.07;5.85;;;;;;;10.90;70.35;100721.81;5095151;28;20074;-28
2022/05/07 00:21:08;;;;;;;11.35;6.38;;;;;;;10.95;69.89;100719.38;5110531;28;20047;-29
2022/05/07 00:23:34;;;;;;;10.57;5.95;;;;;;;10.81;70.01;100701.72;5110112;28;20066;-28
2022/05/07 00:25:59;;;;;;;12.68;6.88;;;;;;;11.09;69.16;100692.66;5110460;28;20040;-28
2022/05/07 00:28:25;;;;;;;10.40;6.00;;;;;;;11.13;69.86;100716.06;5110134;28;20066;-28
2022/05/07 00:30:50;;;;;;;9.27;5.85;;;;;;;11.00;69.83;100708.88;5110144;28;20023;-30
2022/05/07 00:33:15;;;;;;;10.85;6.63;;;;;;;10.92;70.21;100713.63;5110435;28;20031;-30
2022/05/07 00:35:41;;;;;;;13.10;6.55;;;;;;;11.05;69.81;100716.28;5110096;28;20043;-30
2022/05/07 00:38:06;;;;;;;11.68;5.88;;;;;;;10.97;70.63;100719.16;5109711;28;20058;-28
2022/05/07 00:40:32;;;;;;;11.30;7.00;;;;;;;10.75;71.04;100699.88;5109983;28;20031;-29
2022/05/07 00:42:58;;;;;;;11.07;6.72;;;;;;;10.83;70.55;100713.00;5109957;28;20024;-28
2022/05/07 00:45:24;;;;;;;12.23;6.93;;;;;;;10.77;70.78;100695.16;5109693;28;20023;-29
2022/05/07 00:47:49;;;;;;;11.85;6.75;;;;;;;10.90;71.16;100708.47;5109832;28;20399;-28
2022/05/07 00:53:00;;;;;;;11.15;6.47;;;;;;;10.76;71.37;100707.66;5110283;28;20042;-29
2022/05/07 00:55:27;;;;;;;10.13;6.82;;;;;;;10.42;72.75;100690.78;5109814;28;20050;-28
2022/05/07 00:57:55;;;;;;;11.80;6.90;;;;;;;10.44;73.22;100696.75;5109491;28;20387;-32
2022/05/07 01:00:21;;;;;;;9.90;6.53;;;;;;;10.65;72.05;100693.06;5109887;28;20039;-28
2022/05/07 01:02:47;;;;;;;11.85;7.10;;;;;;;10.83;70.83;100697.81;5091275;28;20031;-30
2022/05/07 01:05:12;;;;;;;10.40;7.10;;;;;;;10.51;72.82;100717.28;5109622;28;20515;-30
2022/05/07 01:07:38;;;;;;;12.48;6.65;;;;;;;10.57;72.09;100708.47;5109289;28;20049;-28
2022/05/07 01:10:04;;;;;;;11.40;6.40;;;;;;;10.40;73.01;100708.84;5109421;28;20024;-31
2022/05/07 01:12:30;;;;;;;10.20;6.90;;;;;;;10.45;71.32;100687.72;5090544;28;20023;-28
2022/05/07 01:14:57;;;;;;;11.00;6.80;;;;;;;10.55;71.29;100706.00;5109728;28;20086;-28
2022/05/07 01:17:23;;;;;;;11.68;7.60;;;;;;;10.05;73.52;100703.59;5091006;28;20027;-28
2022/05/07 01:19:51;;;;;;;10.80;7.05;;;;;;;9.75;74.66;100686.25;5108552;28;20031;-32
2022/05/07 01:22:18;;;;;;;11.55;7.22;;;;;;;9.74;74.73;100708.56;5109226;28;20039;-30
2022/05/07 01:24:43;;;;;;;11.73;7.35;;;;;;;9.46;75.33;100696.13;5109523;28;20925;-27
2022/05/07 01:27:09;;;;;;;14.27;7.35;;;;;;;9.65;75.13;100703.41;5109002;28;20031;-29
2022/05/07 01:29:34;;;;;;;12.48;7.30;;;;;;;9.41;75.85;100707.34;5090533;28;20024;-28
2022/05/07 01:32:00;;;;;;;14.48;7.60;;;;;;;9.09;76.71;100692.81;5109418;28;20842;-28
2022/05/07 01:34:26;;;;;;;13.38;7.45;;;;;;;9.11;76.82;100695.28;5108837;28;20504;-28
2022/05/07 01:36:51;;;;;;;13.95;7.47;;;;;;;9.38;75.77;100713.09;5108841;28;20107;-28
2022/05/07 01:39:17;;;;;;;12.52;7.35;;;;;;;9.28;76.11;100701.16;5090225;28;20051;-31
2022/05/07 01:41:42;;;;;;;10.57;7.00;;;;;;;9.25;75.49;100676.56;5108583;28;20045;-28
2022/05/07 01:44:08;;;;;;;13.10;6.80;;;;;;;9.59;74.92;100698.88;5108777;28;20031;-29
2022/05/07 01:49:28;;;;;;;11.38;7.50;;;;;;;9.38;75.30;100702.44;5034896;28;20107;-28
2022/05/07 01:51:53;;;;;;;12.75;7.68;;;;;;;9.06;76.54;100703.84;5108463;28;20019;-32
2022/05/07 01:54:18;;;;;;;12.30;7.72;;;;;;;9.14;76.61;100717.00;5089875;28;20035;-28
2022/05/07 01:56:44;;;;;;;13.15;7.63;;;;;;;9.00;77.13;100693.97;5108479;28;20032;-29
2022/05/07 01:59:09;;;;;;;12.60;8.38;;;;;;;9.09;77.41;100713.28;5108725;28;20031;-28
2022/05/07 02:01:35;;;;;;;11.80;7.40;;;;;;;8.93;77.39;100687.75;5108089;28;20027;-29
2022/05/07 02:04:00;;;;;;;12.18;7.53;;;;;;;8.95;77.54;100704.34;5089906;28;20590;-28
2022/05/07 02:06:26;;;;;;;11.57;7.60;;;;;;;9.04;77.39;100698.72;5108075;28;20471;-28
2022/05/07 02:08:53;;;;;;;12.55;7.43;;;;;;;8.80;78.40;100678.66;5108009;28;20030;-27
2022/05/07 02:11:19;;;;;;;12.52;7.80;;;;;;;9.16;76.65;100677.72;5108311;28;20024;-30
2022/05/07 02:13:44;;;;;;;12.73;7.18;;;;;;;9.31;76.44;100706.06;5108238;28;20078;-28
2022/05/07 02:16:10;;;;;;;12.10;7.45;;;;;;;9.03;77.16;100688.25;5108153;28;20035;-28
2022/05/07 02:18:35;;;;;;;13.30;7.65;;;;;;;9.12;76.87;100705.72;5089920;28;20062;-31
2022/05/07 02:21:00;;;;;;;12.82;7.35;;;;;;;8.92;78.04;100699.44;5108109;28;20031;-30
2022/05/07 02:23:26;;;;;;;17.88;8.40;;;;;;;9.04;77.47;100700.56;5107747;28;20079;-29
2022/05/07 02:25:51;;;;;;;12.68;8.07;;;;;;;8.74;77.92;100678.63;5108086;28;20054;-30
2022/05/07 02:28:17;;;;;;;15.57;9.50;;;;;;;9.08;76.96;100711.63;5107906;28;20020;-31
2022/05/07 02:30:42;;;;;;;15.82;10.90;;;;;;;9.38;75.36;100698.97;5108072;28;20030;-28
2022/05/07 02:33:08;;;;;;;19.08;10.70;;;;;;;9.12;76.50;100707.56;5107040;28;20036;-29
2022/05/07 02:35:33;;;;;;;15.38;10.38;;;;;;;9.07;76.71;100716.13;5107853;28;20475;-29
2022/05/07 02:37:59;;;;;;;15.45;9.82;;;;;;;9.36;75.48;100703.66;5088840;28;20057;-28
2022/05/07 02:40:24;;;;;;;17.00;9.57;;;;;;;9.37;75.20;100710.59;5108478;28;20452;-29
2022/05/07 02:42:50;;;;;;;18.95;9.75;;;;;;;9.38;74.88;100705.09;5107981;28;20114;-28
2022/05/07 02:45:15;;;;;;;16.48;9.88;;;;;;;9.25;75.54;100724.47;5089327;28;20027;-28
2022/05/07 02:47:42;;;;;;;15.68;9.40;;;;;;;9.53;74.23;100694.31;5107416;28;20042;-32
2022/05/07 02:50:09;;;;;;;17.13;9.27;;;;;;;9.22;76.10;100716.03;5089077;28;20073;-28
2022/05/07 02:52:36;;;;;;;16.07;10.07;;;;;;;8.97;77.14;100702.31;5089025;28;20039;-29
2022/05/07 02:55:03;;;;;;;13.90;9.30;;;;;;;9.29;76.10;100714.22;5107632;28;20349;-30
2022/05/07 02:57:29;;;;;;;13.38;8.68;;;;;;;9.62;74.88;100711.78;5107392;28;20537;-32
2022/05/07 02:59:55;;;;;;;12.38;8.85;;;;;;;9.84;73.00;100701.03;5107708;28;20071;-28
2022/05/07 03:02:20;;;;;;;14.30;9.25;;;;;;;9.58;74.29;100718.53;5107595;28;20027;-28
2022/05/07 03:04:47;;;;;;;16.98;9.18;;;;;;;9.66;74.11;100717.53;5107925;28;20023;-31
2022/05/07 03:07:13;;;;;;;14.15;8.13;;;;;;;9.58;74.16;100707.88;5107358;28;20027;-28
2022/05/07 03:09:39;;;;;;;15.68;8.68;;;;;;;9.54;73.67;100689.81;5107409;28;20031;-28
2022/05/07 03:12:04;;;;;;;13.75;8.80;;;;;;;9.12;75.24;100707.56;5107416;28;20027;-31
2022/05/07 03:14:31;;;;;;;14.52;8.73;;;;;;;9.39;74.61;100721.88;5107492;28;20024;-28
2022/05/07 03:16:56;;;;;;;13.80;8.90;;;;;;;9.29;75.57;100718.75;5107163;28;20028;-27
2022/05/07 03:19:22;;;;;;;14.02;9.05;;;;;;;8.96;76.83;100716.66;5107380;28;20035;-32
2022/05/07 03:21:47;;;;;;;13.65;8.23;;;;;;;9.20;76.16;100721.56;5106544;28;20024;-28
2022/05/07 03:24:13;;;;;;;13.90;8.85;;;;;;;9.32;75.09;100729.03;5107161;28;20051;-31
2022/05/07 03:26:38;;;;;;;15.55;9.68;;;;;;;9.31;74.50;100703.41;5107360;28;20020;-28
2022/05/07 03:29:04;;;;;;;16.58;9.05;;;;;;;9.54;73.80;100722.59;5107293;28;20103;-28
2022/05/07 03:31:30;;;;;;;19.08;12.20;;;;;;;9.48;73.96;100727.88;5107026;28;20042;-32
2022/05/07 03:33:56;;;;;;;17.20;11.18;;;;;;;9.34;74.36;100726.97;5107175;28;20120;-29
2022/05/07 03:36:21;;;;;;;17.67;12.50;;;;;;;9.34;75.23;100738.44;5088465;28;20028;-28
2022/05/07 03:38:47;;;;;;;16.63;11.55;;;;;;;9.61;72.30;100712.81;5107049;28;20059;-30
2022/05/07 03:41:14;;;;;;;17.25;12.48;;;;;;;9.68;73.18;100735.97;5107349;28;20028;-29
2022/05/07 03:43:41;;;;;;;19.60;12.63;;;;;;;9.54;74.49;100743.91;5108774;28;20054;-28
2022/05/07 03:46:07;;;;;;;17.40;11.18;;;;;;;9.60;74.40;100737.81;5111112;28;20636;-33
2022/05/07 03:48:32;;;;;;;17.00;11.05;;;;;;;10.00;72.96;100732.66;5110942;28;20027;-29
2022/05/07 03:50:58;;;;;;;17.05;11.00;;;;;;;9.83;73.54;100720.72;5110550;28;20031;-30
2022/05/07 03:53:30;;;;;;;14.82;10.20;;;;;;;9.75;74.16;100732.34;5110942;28;20031;-28
2022/05/07 03:56:06;;;;;;;18.65;10.60;;;;;;;9.96;73.98;100735.94;5110780;28;20114;-30
2022/05/07 03:58:33;;;;;;;14.77;10.38;;;;;;;10.01;72.87;100718.34;5110904;28;20027;-28
2022/05/07 04:00:59;;;;;;;17.20;9.75;;;;;;;10.26;72.65;100752.44;5110702;28;20118;-33
2022/05/07 04:03:25;;;;;;;19.48;10.27;;;;;;;10.04;72.42;100704.59;5110552;28;20118;-28
2022/05/07 04:05:52;;;;;;;14.73;9.07;;;;;;;10.36;72.35;100744.94;5110720;28;20444;-30
2022/05/07 04:08:18;;;;;;;12.90;8.82;;;;;;;10.14;72.00;100709.56;5092317;28;20027;-28
2022/05/07 04:10:44;;;;;;;16.00;9.18;;;;;;;10.58;71.40;100755.44;5092207;28;20384;-28
2022/05/07 04:13:14;;;;;;;13.05;8.90;;;;;;;10.58;71.62;100750.09;5092136;28;20019;-29
2022/05/07 04:15:39;;;;;;;12.73;8.23;;;;;;;10.56;71.58;100757.47;5110081;28;20032;-30
2022/05/07 04:18:07;;;;;;;14.15;9.00;;;;;;;10.79;70.83;100757.94;5110409;28;20038;-30
2022/05/07 04:20:33;;;;;;;16.50;8.23;;;;;;;11.05;69.83;100761.66;5110677;28;20020;-29
2022/05/07 04:22:58;;;;;;;14.73;8.32;;;;;;;10.77;71.12;100765.34;5091955;28;20042;-28
2022/05/07 04:25:24;;;;;;;14.27;8.60;;;;;;;10.94;70.80;100760.41;5110419;28;20036;-30
2022/05/07 04:27:50;;;;;;;14.70;8.93;;;;;;;11.34;69.65;100762.25;5109911;28;20024;-28
2022/05/07 04:30:16;;;;;;;14.18;8.90;;;;;;;11.37;68.84;100760.00;5110106;28;20043;-32
2022/05/07 04:32:41;;;;;;;13.00;8.30;;;;;;;11.37;68.63;100741.31;5109944;28;20023;-29
2022/05/07 04:35:07;;;;;;;13.70;8.25;;;;;;;11.62;67.64;100768.16;5110253;28;20043;-29
2022/05/07 04:37:32;;;;;;;14.15;8.45;;;;;;;11.69;67.49;100767.34;5091004;28;20028;-28
2022/05/07 04:39:58;;;;;;;14.13;8.75;;;;;;;11.76;67.01;100773.50;5109965;28;20035;-29
2022/05/07 04:42:24;;;;;;;13.18;8.60;;;;;;;11.38;68.49;100756.31;5110078;28;20027;-30
2022/05/07 04:44:50;;;;;;;17.65;9.23;;;;;;;11.30;69.93;100769.88;5109982;28;20035;-28
2022/05/07 04:47:15;;;;;;;15.20;9.80;;;;;;;11.30;69.11;100745.00;5109952;28;20442;-28
2022/05/07 04:49:41;;;;;;;15.02;9.68;;;;;;;11.65;67.88;100783.81;5109843;28;20020;-30
2022/05/07 04:52:06;;;;;;;17.73;10.00;;;;;;;11.51;69.73;100781.38;5110120;28;20030;-30
2022/05/07 04:54:32;;;;;;;14.07;9.85;;;;;;;11.74;68.88;100776.38;5108994;28;20031;-32
2022/05/07 04:56:58;;;;;;;13.60;10.00;;;;;;;11.37;70.34;100785.88;5091263;28;20058;-30
2022/05/07 04:59:24;;;;;;;16.08;10.07;;;;;;;11.69;69.80;100778.88;5109736;28;20028;-30
2022/05/07 05:01:50;;;;;;;15.05;9.90;;;;;;;12.02;67.89;100776.13;5109145;28;20046;-29
2022/05/07 05:04:16;;;;;;;16.25;9.60;;;;;;;12.04;67.99;100797.31;5109808;28;20024;-29
2022/05/07 05:06:42;;;;;;;17.52;9.63;;;;;;;11.92;68.27;100778.44;5091043;28;20122;-29
2022/05/07 05:09:07;;;;;;;17.58;11.00;;;;;;;12.25;67.72;100793.53;5091056;28;20023;-32
2022/05/07 05:11:34;;;;;;;15.60;9.48;;;;;;;12.38;67.25;100798.84;5109437;28;20110;-29
2022/05/07 05:14:00;;;;;;;13.85;9.55;;;;;;;12.64;66.01;100795.19;5109389;28;20032;-33
2022/05/07 05:16:26;;;;;;;13.27;9.25;;;;;;;12.48;66.14;100781.50;5109355;28;20042;-29
2022/05/07 05:18:51;;;;;;;16.30;9.98;;;;;;;12.72;66.41;100796.78;5109552;28;20035;-28
2022/05/07 05:21:17;;;;;;;16.63;10.10;;;;;;;12.73;66.79;100785.06;5109104;28;20116;-31
2022/05/07 05:23:46;;;;;;;14.93;9.68;;;;;;;12.99;66.15;100796.63;5108929;28;20514;-29
2022/05/07 05:26:14;;;;;;;15.85;9.88;;;;;;;12.96;66.97;100783.69;5090569;28;20027;-29
2022/05/07 05:28:40;;;;;;;;;;;;;;;13.23;65.62;100806.53;5109675;28;20077;-30
2022/05/07 05:31:06;;;;;;;15.80;10.73;;;;;;;13.44;64.61;100800.03;5109320;28;20456;-29
2022/05/07 05:33:32;;;;;;;16.90;9.70;;;;;;;13.36;66.54;100805.66;5108747;28;20052;-28
2022/05/07 05:35:58;;;;;;;15.68;10.13;;;;;;;13.33;66.12;100807.94;5108918;28;20036;-28
2022/05/07 05:38:24;;;;;;;17.65;9.88;;;;;;;13.01;66.02;100784.66;5108871;28;20055;-29
2022/05/07 05:40:50;;;;;;;13.82;9.48;;;;;;;13.46;65.62;100799.78;5108904;28;20027;-28
2022/05/07 05:43:15;;;;;;;16.02;9.80;;;;;;;13.29;66.58;100798.69;5108670;28;20031;-29
2022/05/07 05:45:41;;;;;;;15.48;10.25;;;;;;;13.75;65.27;100816.22;5108692;28;20035;-31
2022/05/07 05:48:06;;;;;;;14.02;10.23;;;;;;;13.94;64.50;100817.06;5109079;28;20031;-31
2022/05/07 05:50:32;;;;;;;15.65;10.00;;;;;;;13.81;65.38;100812.63;5108526;28;20063;-32
2022/05/07 05:52:58;;;;;;;16.80;10.13;;;;;;;13.44;64.42;100794.66;5108856;28;20031;-33
2022/05/07 05:55:24;;;;;;;16.13;10.07;;;;;;;13.62;64.58;100815.28;5090120;28;20023;-29
2022/05/07 05:57:50;;;;;;;15.27;10.35;;;;;;;13.79;64.25;100809.38;5108328;28;20050;-28
2022/05/07 06:00:16;;;;;;;15.75;9.75;;;;;;;14.28;63.21;100821.00;5108619;28;20036;-30
2022/05/07 06:02:45;;;;;;;19.10;9.93;;;;;;;14.22;63.62;100808.47;5108933;28;20038;-29
2022/05/07 06:05:11;;;;;;;15.55;10.10;;;;;;;14.30;62.73;100800.13;5089895;28;20462;-31
2022/05/07 06:07:37;;;;;;;14.13;9.95;;;;;;;14.33;63.22;100778.22;5108053;28;20031;-29
2022/05/07 06:10:04;;;;;;;15.88;9.95;;;;;;;14.82;60.59;100802.38;5090045;28;20552;-29
2022/05/07 06:12:30;;;;;;;15.48;9.88;;;;;;;14.81;60.93;100800.72;5089664;28;20032;-32
2022/05/07 06:14:56;;;;;;;15.07;10.27;;;;;;;14.65;62.13;100818.31;5089798;28;20059;-30
2022/05/07 06:17:22;;;;;;;16.75;10.38;;;;;;;14.59;61.63;100789.69;5108186;28;20486;-34
2022/05/07 06:19:48;;;;;;;14.13;9.25;;;;;;;15.05;61.25;100817.72;5089572;28;20063;-31
2022/05/07 06:22:14;;;;;;;15.25;10.40;;;;;;;15.15;59.05;100801.84;5108080;28;20050;-30
2022/05/07 06:27:31;;;;;;;14.45;10.27;;;;;;;15.32;60.62;100811.94;5107912;28;20054;-30
2022/05/07 06:29:57;;;;;;;13.13;9.40;;;;;;;15.40;60.14;100814.28;5108081;28;20027;-31
2022/05/07 06:32:23;;;;;;;12.95;8.85;;;;;;;15.71;58.56;100823.03;5107940;28;20057;-33
2022/05/07 06:34:49;;;;;;;16.08;10.48;;;;;;;15.43;59.52;100803.88;5107784;28;20103;-30
2022/05/07 06:37:14;;;;;;;12.50;8.98;;;;;;;15.57;59.83;100815.22;5108042;28;20468;-32
2022/05/07 06:39:40;;;;;;;14.60;9.43;;;;;;;15.62;60.20;100833.34;5107669;28;20043;-30
2022/05/07 06:42:07;;;;;;;11.70;8.68;;;;;;;15.58;58.50;100800.72;5107612;28;20384;-30
2022/05/07 06:44:33;;;;;;;13.48;8.73;;;;;;;15.81;58.91;100815.25;5107815;28;20023;-29
2022/05/07 06:46:58;;;;;;;13.07;9.27;;;;;;;15.79;58.85;100803.91;5107629;28;20081;-28
2022/05/07 06:49:24;;;;;;;12.43;8.95;;;;;;;15.84;59.08;100822.84;5089258;28;20042;-28
2022/05/07 06:51:51;;;;;;;11.68;8.10;;;;;;;16.11;56.77;100831.22;5107252;28;20027;-29
2022/05/07 06:54:17;;;;;;;13.77;8.65;;;;;;;15.89;56.93;100806.81;5088977;28;20492;-29
2022/05/07 06:56:42;;;;;;;14.70;9.23;;;;;;;15.94;59.39;100814.19;5107829;28;20041;-28
2022/05/07 06:59:09;;;;;;;15.13;9.00;;;;;;;16.22;58.05;100826.88;5107516;28;20023;-29
2022/05/07 07:01:35;;;;;;;11.50;8.13;;;;;;;16.27;58.29;100827.00;5107396;28;20066;-31
2022/05/07 07:04:01;;;;;;;13.60;8.57;;;;;;;16.35;58.30;100820.44;5107524;28;20047;-29
2022/05/07 07:06:27;;;;;;;12.13;7.53;;;;;;;16.82;58.46;100810.31;5107426;28;20110;-30
2022/05/07 07:08:53;;;;;;;12.15;8.02;;;;;;;17.02;55.55;100822.47;5107205;28;20063;-30
2022/05/07 07:11:20;;;;;;;12.73;8.15;;;;;;;16.76;56.25;100813.13;5107496;28;20106;-29
2022/05/07 07:13:46;;;;;;;13.20;7.80;;;;;;;16.87;57.64;100813.06;5107099;28;20194;-33
2022/05/07 07:16:12;;;;;;;13.02;7.78;;;;;;;16.70;58.75;100831.06;5107237;28;20035;-31
2022/05/07 07:18:38;;;;;;;10.70;7.97;;;;;;;16.80;57.86;100825.84;5091010;28;20035;-29
2022/05/07 07:21:03;;;;;;;12.23;7.70;;;;;;;17.05;56.86;100828.22;5093272;28;20774;-28
2022/05/07 07:23:29;;;;;;;9.20;7.18;;;;;;;16.69;56.98;100810.56;5092937;28;20027;-32
2022/05/07 07:25:54;;;;;;;10.82;7.15;;;;;;;16.97;56.41;100820.53;5111400;28;20027;-28
2022/05/07 07:28:20;;;;;;;12.07;7.40;;;;;;;16.81;57.04;100827.50;5111497;28;20084;-29
2022/05/07 07:30:45;;;;;;;11.20;7.50;;;;;;;17.37;56.36;100826.88;5111379;28;20036;-28
2022/05/07 07:33:13;;;;;;;10.85;7.47;;;;;;;17.27;55.46;100812.16;5092776;28;20032;-29
2022/05/07 07:35:39;;;;;;;;;;;;;;;16.83;55.93;100828.09;5111880;28;20092;-29
2022/05/07 07:38:04;;;;;;;11.52;7.07;;;;;;;17.00;55.38;100819.22;5111008;28;19981;-28
2022/05/07 07:40:31;;;;;;;11.43;7.40;;;;;;;17.44;54.34;100827.50;5111310;28;20522;-29
2022/05/07 07:42:56;;;;;;;11.45;7.28;;;;;;;17.08;56.00;100821.53;5092950;28;20035;-28
2022/05/07 07:48:07;;;;;;;10.32;6.95;;;;;;;17.53;53.77;100817.09;5111540;28;20042;-33
2022/05/07 07:50:35;;;;;;;10.85;6.30;;;;;;;18.11;55.04;100804.19;5092505;28;20118;-29
2022/05/07 07:53:03;;;;;;;9.18;6.15;;;;;;;18.34;53.02;100808.50;5092822;28;20717;-28
2022/05/07 07:55:29;;;;;;;9.32;6.18;;;;;;;18.56;51.88;100822.81;5092605;28;20415;-29
2022/05/07 07:58:00;;;;;;;11.73;7.18;;;;;;;18.35;51.54;100810.97;5110709;28;20042;-29
2022/05/07 08:00:27;;;;;;;9.90;5.97;;;;;;;18.64;52.16;100819.66;5092372;28;20452;-30
2022/05/07 08:02:56;;;;;;;10.35;6.55;;;;;;;18.72;51.95;100814.88;5110595;28;20028;-34
2022/05/07 08:05:23;;;;;;;9.98;6.15;;;;;;;18.64;51.32;100811.56;5110863;28;20458;-33
2022/05/07 08:13:18;;;;;;;8.80;6.30;;;;;;;18.31;50.36;100804.44;5110621;28;20039;-29
2022/05/07 08:15:44;;;;;;;10.43;5.72;;;;;;;18.53;49.75;100817.09;5110613;28;20027;-31
2022/05/07 08:18:09;;;;;;;9.02;5.80;;;;;;;18.67;48.08;100807.50;5110650;28;20028;-29
2022/05/07 08:20:34;;;;;;;10.98;5.47;;;;;;;18.27;48.84;100797.91;5110666;28;20028;-28
2022/05/07 08:23:00;;;;;;;9.75;5.72;;;;;;;18.85;49.45;100812.59;5110756;28;20092;-30
2022/05/07 08:25:25;;;;;;;7.90;4.93;;;;;;;19.14;48.05;100806.91;5110407;28;20035;-29
2022/05/07 08:27:51;;;;;;;8.38;5.50;;;;;;;19.18;48.00;100813.41;5110329;28;20054;-30
2022/05/07 08:30:17;;;;;;;8.88;5.88;;;;;;;19.21;46.15;100812.91;5110072;28;20031;-29
2022/05/07 08:32:42;;;;;;;6.75;4.80;;;;;;;19.21;46.24;100812.91;5110314;28;20030;-34
2022/05/07 08:35:08;;;;;;;7.30;5.07;;;;;;;19.47;46.99;100810.38;5110478;28;20023;-29
2022/05/07 08:37:33;;;;;;;8.52;5.75;;;;;;;19.54;46.50;100816.41;5090960;28;20028;-30
2022/05/07 08:40:01;;;;;;;9.00;6.07;;;;;;;19.61;46.47;100795.34;5109722;28;20414;-34
2022/05/07 08:42:31;;;;;;;10.05;6.13;;;;;;;19.41;47.22;100806.03;5091314;28;20106;-31
2022/05/07 08:44:57;;;;;;;9.43;6.78;;;;;;;19.28;47.42;100807.28;5110002;28;20027;-30
2022/05/07 08:47:23;;;;;;;10.93;6.25;;;;;;;19.39;46.32;100808.16;5110284;28;20020;-31
2022/05/07 08:49:52;;;;;;;9.88;6.60;;;;;;;19.58;45.24;100790.47;5109650;28;20880;-29
2022/05/07 08:52:19;;;;;;;8.50;6.10;;;;;;;19.84;45.27;100815.00;5109785;28;20031;-31
2022/05/07 08:54:45;;;;;;;11.18;6.65;;;;;;;19.76;43.06;100794.66;5110136;28;20024;-29
2022/05/07 08:57:12;;;;;;;9.75;6.28;;;;;;;19.85;42.66;100789.56;5090925;28;20032;-32
2022/05/07 08:59:38;;;;;;;7.93;5.90;;;;;;;20.24;44.81;100794.59;5090803;28;20038;-29
2022/05/07 09:02:04;;;;;;;8.18;6.30;;;;;;;20.31;41.28;100797.88;5109502;28;20032;-29
2022/05/07 09:04:29;;;;;;;8.65;6.32;;;;;;;20.18;42.35;100815.41;5109509;28;20031;-30
2022/05/07 09:07:03;;;;;;;8.15;5.40;;;;;;;20.05;42.16;100811.31;5109325;28;20484;-34
2022/05/07 09:09:31;;;;;;;7.28;5.40;;;;;;;20.03;39.75;100804.53;5090591;28;20030;-29
2022/05/07 09:11:57;;;;;;;9.80;5.93;;;;;;;20.06;40.73;100799.41;5109259;28;20028;-29
2022/05/07 09:14:31;;;;;;;7.53;5.15;;;;;;;19.96;41.04;100801.25;5090940;28;20024;-28
2022/05/07 09:17:00;;;;;;;9.57;7.28;;;;;;;20.85;40.47;100796.66;5090663;28;20031;-30
2022/05/07 09:19:28;;;;;;;9.93;6.28;;;;;;;20.79;40.01;100800.47;5109158;28;20055;-29
2022/05/07 09:22:07;;;;;;;14.10;7.93;;;;;;;20.84;39.53;100790.44;5108742;28;20035;-34
2022/05/07 09:24:32;;;;;;;20.55;10.65;;;;;;;20.92;40.14;100790.97;5108942;28;20530;-33
2022/05/07 09:26:58;;;;;;;29.23;16.77;;;;;;;20.91;39.39;100789.34;5108992;28;20031;-30
2022/05/07 09:29:27;;;;;;;8.95;6.28;;;;;;;20.55;40.07;100791.97;5108740;28;20123;-33
2022/05/07 09:31:53;;;;;;;10.25;6.80;;;;;;;20.46;41.31;100789.78;5089968;28;20023;-29
2022/05/07 09:37:21;;;;;;;11.15;7.45;;;;;;;21.22;39.66;100785.53;5109034;28;20069;-30
2022/05/07 09:39:48;;;;;;;10.10;6.70;;;;;;;21.03;38.93;100787.19;5108557;28;20079;-30
2022/05/07 09:42:22;;;;;;;10.23;7.72;;;;;;;20.72;40.11;100787.19;5089867;28;20096;-29
2022/05/07 09:44:48;;;;;;;10.75;7.20;;;;;;;20.79;41.07;100787.72;5108659;28;20031;-29
2022/05/07 09:47:14;;;;;;;9.45;6.60;;;;;;;20.74;39.68;100774.16;5090201;28;20036;-29
2022/05/07 09:52:29;;;;;;;9.85;6.97;;;;;;;21.20;39.59;100782.28;5108857;28;20104;-28
2022/05/07 09:57:40;;;;;;;8.80;6.63;;;;;;;21.52;40.54;100772.25;5108277;28;20096;-32
2022/05/07 10:00:07;;;;;;;8.07;7.00;;;;;;;22.13;38.12;100779.38;5090185;28;20570;-30
2022/05/07 10:02:45;;;;;;;11.90;7.20;;;;;;;22.14;37.24;100759.28;5108261;28;20028;-30
2022/05/07 10:05:38;;;;;;;8.07;6.18;;;;;;;21.08;37.59;100773.63;5108696;28;20034;-29
2022/05/07 10:08:29;;;;;;;8.57;6.82;;;;;;;21.49;39.10;100757.31;5107983;28;20172;-29
2022/05/07 10:10:58;;;;;;;9.50;7.30;;;;;;;21.76;38.71;100772.44;5102682;28;20509;-33
2022/05/07 10:13:23;;;;;;;9.95;6.78;;;;;;;21.95;37.09;100754.47;5108111;28;20505;-29
2022/05/07 10:16:03;;;;;;;11.20;7.57;;;;;;;21.67;37.87;100764.88;5089276;28;20028;-29
2022/05/07 10:18:41;;;;;;;9.82;6.90;;;;;;;21.80;37.06;100752.63;5089268;28;20066;-29
2022/05/07 10:21:18;;;;;;;10.35;6.82;;;;;;;22.58;37.78;100764.75;5107920;28;20126;-30
2022/05/07 10:23:54;;;;;;;8.15;6.80;;;;;;;22.57;37.31;100754.16;5089428;28;20028;-31
2022/05/07 10:26:23;;;;;;;12.30;8.00;;;;;;;22.57;37.76;100741.38;5089336;28;20036;-31
2022/05/07 10:28:49;;;;;;;9.80;6.15;;;;;;;22.89;34.17;100739.25;5107521;28;20023;-31
2022/05/07 10:31:19;;;;;;;11.05;6.65;;;;;;;22.58;34.44;100748.44;5107873;28;20742;-30
2022/05/07 10:33:45;;;;;;;8.63;6.20;;;;;;;21.97;36.05;100730.56;5108160;28;20100;-30
2022/05/07 10:36:11;;;;;;;8.90;6.70;;;;;;;22.12;36.70;100742.44;5107386;28;20063;-31
2022/05/07 10:38:38;;;;;;;9.30;6.57;;;;;;;22.11;36.88;100749.78;5089442;28;20126;-31
2022/05/07 10:41:25;;;;;;;8.95;5.97;;;;;;;22.22;36.44;100737.75;5089284;28;20024;-31
2022/05/07 10:43:56;;;;;;;13.32;6.40;;;;;;;22.60;36.42;100750.88;5107503;28;20063;-31
2022/05/07 10:46:22;;;;;;;9.43;5.72;;;;;;;22.87;34.09;100729.44;5107515;28;20027;-30
2022/05/07 10:48:53;;;;;;;9.82;5.82;;;;;;;23.29;37.14;100727.19;5088876;28;20031;-34
2022/05/07 10:51:26;;;;;;;8.90;5.82;;;;;;;23.15;33.51;100727.06;5107422;28;20019;-29
2022/05/07 10:53:52;;;;;;;9.55;5.40;;;;;;;22.80;34.68;100725.44;5106201;28;20043;-29
2022/05/07 10:56:19;;;;;;;7.18;4.38;;;;;;;22.66;32.28;100715.22;5107360;28;20099;-30
2022/05/07 10:58:52;;;;;;;6.88;4.45;;;;;;;21.93;33.31;100713.19;5107533;28;20041;-29
2022/05/07 11:01:19;;;;;;;6.75;4.55;;;;;;;21.99;33.10;100720.22;5107217;28;20491;-29
2022/05/07 11:03:45;;;;;;;8.70;4.60;;;;;;;22.00;33.88;100710.97;5107135;28;20058;-29
2022/05/07 11:06:11;;;;;;;9.18;4.57;;;;;;;21.99;33.81;100714.81;5107110;28;20055;-33
2022/05/07 11:08:52;;;;;;;11.18;4.30;;;;;;;22.93;31.63;100704.94;5106872;28;20391;-30
2022/05/07 11:11:18;;;;;;;8.38;4.18;;;;;;;22.82;30.24;100705.03;5088880;28;20043;-29
2022/05/07 11:13:52;;;;;;;8.10;4.20;;;;;;;22.66;32.58;100703.53;5088553;28;20136;-30
2022/05/07 11:16:19;;;;;;;8.38;4.35;;;;;;;23.29;31.61;100689.09;5107126;28;20031;-31
2022/05/07 11:18:51;;;;;;;6.53;4.15;;;;;;;22.76;30.13;100681.69;5106699;28;20085;-32
2022/05/07 11:21:20;;;;;;;9.82;4.00;;;;;;;23.39;31.04;100693.59;5107585;28;20044;-33
2022/05/07 11:23:56;;;;;;;7.28;3.97;;;;;;;22.83;32.79;100690.31;5106924;28;20067;-29
2022/05/07 11:26:23;;;;;;;9.02;5.72;;;;;;;23.51;32.19;100691.28;5088691;28;20146;-29
2022/05/07 11:28:49;;;;;;;13.32;6.47;;;;;;;23.84;31.81;100691.47;5106895;28;20020;-28
2022/05/07 11:31:29;;;;;;;9.60;5.25;;;;;;;23.33;28.39;100694.75;5106706;28;20038;-29
2022/05/07 11:34:00;;;;;;;9.90;5.03;;;;;;;23.32;29.39;100690.44;5107043;28;20088;-31
2022/05/07 11:36:26;;;;;;;8.23;4.22;;;;;;;23.60;30.16;100689.56;5106879;28;20039;-28
2022/05/07 11:39:05;;;;;;;10.38;4.30;;;;;;;23.75;29.08;100679.59;5107136;28;20650;-29
2022/05/07 11:41:30;;;;;;;6.82;3.88;;;;;;;24.11;29.45;100677.22;5106832;28;20024;-31
2022/05/07 11:46:55;;;;;;;9.90;4.85;;;;;;;23.74;28.88;100667.88;5107238;28;20128;-31
2022/05/07 11:49:33;;;;;;;7.63;4.60;;;;;;;23.55;29.38;100654.22;5107033;28;20089;-30